sensor_id;sensor_type;location;lat;lon;timestamp;temperature;humidity
21627;DHT22;10975;47.872;12.972;2023-09-07T00:00:50;14.70;99.90
21627;DHT22;10975;47.872;12.972;2023-09-07T00:03:17;14.60;99.90
21627;DHT22;10975;47.872;12.972;2023-09-07T00:05:44;14.60;99.90
21627;DHT22;10975;47.872;12.972;2023-09-07T00:08:11;14.70;99.90
21627;DHT22;10975;47.872;12.972;2023-09-07T00:10:38;14.60;99.90
21627;DHT22;10975;47.872;12.972;2023-09-07T00:13:04;14.70;99.90
21627;DHT22;10975;47.872;12.972;2023-09-07T00:15:35;14.60;99.90
21627;DHT22;10975;47.872;12.972;2023-09-07T00:18:02;14.60;99.90
21627;DHT22;10975;47.872;12.972;2023-09-07T00:20:29;14.60;99.90
21627;DHT22;10975;47.872;12.972;2023-09-07T00:22:56;14.50;99.90
21627;DHT22;10975;47.872;12.972;2023-09-07T00:25:25;14.50;99.90
21627;DHT22;10975;47.872;12.972;2023-09-07T00:27:52;14.50;99.90
21627;DHT22;10975;47.872;12.972;2023-09-07T00:30:18;14.50;99.90
21627;DHT22;10975;47.872;12.972;2023-09-07T00:32:45;14.50;99.90
21627;DHT22;10975;47.872;12.972;2023-09-07T00:35:12;14.50;99.90
21627;DHT22;10975;47.872;12.972;2023-09-07T00:37:38;14.50;99.90
21627;DHT22;10975;47.872;12.972;2023-09-07T00:40:05;14.50;99.90
21627;DHT22;10975;47.872;12.972;2023-09-07T00:42:36;14.40;99.90
21627;DHT22;10975;47.872;12.972;2023-09-07T00:45:03;14.40;99.90
21627;DHT22;10975;47.872;12.972;2023-09-07T00:47:30;14.40;99.90
21627;DHT22;10975;47.872;12.972;2023-09-07T00:49:57;14.40;99.90
21627;DHT22;10975;47.872;12.972;2023-09-07T00:52:25;14.40;99.90
21627;DHT22;10975;47.872;12.972;2023-09-07T00:54:51;14.40;99.90
21627;DHT22;10975;47.872;12.972;2023-09-07T00:57:18;14.30;99.90
21627;DHT22;10975;47.872;12.972;2023-09-07T00:59:45;14.30;99.90
21627;DHT22;10975;47.872;12.972;2023-09-07T01:02:12;14.20;99.90
21627;DHT22;10975;47.872;12.972;2023-09-07T01:04:39;14.20;99.90
21627;DHT22;10975;47.872;12.972;2023-09-07T01:07:16;14.10;99.90
21627;DHT22;10975;47.872;12.972;2023-09-07T01:09:43;14.00;99.90
21627;DHT22;10975;47.872;12.972;2023-09-07T01:12:14;14.00;99.90
21627;DHT22;10975;47.872;12.972;2023-09-07T01:14:41;14.00;99.90
21627;DHT22;10975;47.872;12.972;2023-09-07T01:17:08;14.00;99.90
21627;DHT22;10975;47.872;12.972;2023-09-07T01:19:35;14.00;99.90
21627;DHT22;10975;47.872;12.972;2023-09-07T01:22:02;14.00;99.90
21627;DHT22;10975;47.872;12.972;2023-09-07T01:24:30;13.90;99.90
21627;DHT22;10975;47.872;12.972;2023-09-07T01:26:57;13.90;99.90
21627;DHT22;10975;47.872;12.972;2023-09-07T01:29:24;13.90;99.90
21627;DHT22;10975;47.872;12.972;2023-09-07T01:31:51;13.90;99.90
21627;DHT22;10975;47.872;12.972;2023-09-07T01:34:19;13.90;99.90
21627;DHT22;10975;47.872;12.972;2023-09-07T01:36:45;13.80;99.90
21627;DHT22;10975;47.872;12.972;2023-09-07T01:39:12;13.90;99.90
21627;DHT22;10975;47.872;12.972;2023-09-07T01:41:39;13.80;99.90
21627;DHT22;10975;47.872;12.972;2023-09-07T01:44:05;13.80;99.90
21627;DHT22;10975;47.872;12.972;2023-09-07T01:46:32;13.70;99.90
21627;DHT22;10975;47.872;12.972;2023-09-07T01:48:59;13.70;99.90
21627;DHT22;10975;47.872;12.972;2023-09-07T01:51:26;13.70;99.90
21627;DHT22;10975;47.872;12.972;2023-09-07T01:53:54;13.50;99.90
21627;DHT22;10975;47.872;12.972;2023-09-07T01:56:23;13.40;99.90
21627;DHT22;10975;47.872;12.972;2023-09-07T01:58:50;13.40;99.90
21627;DHT22;10975;47.872;12.972;2023-09-07T02:03:47;13.40;99.90
21627;DHT22;10975;47.872;12.972;2023-09-07T02:06:14;13.30;99.90
21627;DHT22;10975;47.872;12.972;2023-09-07T02:08:41;13.20;99.90
21627;DHT22;10975;47.872;12.972;2023-09-07T02:11:08;13.10;99.90
21627;DHT22;10975;47.872;12.972;2023-09-07T02:13:34;13.10;99.90
21627;DHT22;10975;47.872;12.972;2023-09-07T02:16:04;13.10;99.90
21627;DHT22;10975;47.872;12.972;2023-09-07T02:18:32;13.10;99.90
21627;DHT22;10975;47.872;12.972;2023-09-07T02:21:03;13.20;99.90
21627;DHT22;10975;47.872;12.972;2023-09-07T02:23:30;13.20;99.90
21627;DHT22;10975;47.872;12.972;2023-09-07T02:25:57;13.30;99.90
21627;DHT22;10975;47.872;12.972;2023-09-07T02:28:24;13.30;99.90
21627;DHT22;10975;47.872;12.972;2023-09-07T02:30:51;13.30;99.90
21627;DHT22;10975;47.872;12.972;2023-09-07T02:33:18;13.20;99.90
21627;DHT22;10975;47.872;12.972;2023-09-07T02:35:45;13.20;99.90
21627;DHT22;10975;47.872;12.972;2023-09-07T02:38:13;13.20;99.90
21627;DHT22;10975;47.872;12.972;2023-09-07T02:40:41;13.20;99.90
21627;DHT22;10975;47.872;12.972;2023-09-07T02:43:09;13.20;99.90
21627;DHT22;10975;47.872;12.972;2023-09-07T02:45:36;13.10;99.90
21627;DHT22;10975;47.872;12.972;2023-09-07T02:48:03;13.00;99.90
21627;DHT22;10975;47.872;12.972;2023-09-07T02:50:31;12.90;99.90
21627;DHT22;10975;47.872;12.972;2023-09-07T02:52:59;12.90;99.90
21627;DHT22;10975;47.872;12.972;2023-09-07T02:55:27;12.90;99.90
21627;DHT22;10975;47.872;12.972;2023-09-07T02:57:53;12.90;99.90
21627;DHT22;10975;47.872;12.972;2023-09-07T03:00:21;12.90;99.90
21627;DHT22;10975;47.872;12.972;2023-09-07T03:02:49;12.90;99.90
21627;DHT22;10975;47.872;12.972;2023-09-07T03:05:16;12.80;99.90
21627;DHT22;10975;47.872;12.972;2023-09-07T03:07:44;12.80;99.90
21627;DHT22;10975;47.872;12.972;2023-09-07T03:10:11;12.80;99.90
21627;DHT22;10975;47.872;12.972;2023-09-07T03:12:38;12.80;99.90
21627;DHT22;10975;47.872;12.972;2023-09-07T03:15:05;12.80;99.90
21627;DHT22;10975;47.872;12.972;2023-09-07T03:17:31;12.70;99.90
21627;DHT22;10975;47.872;12.972;2023-09-07T03:19:58;12.70;99.90
21627;DHT22;10975;47.872;12.972;2023-09-07T03:22:25;12.70;99.90
21627;DHT22;10975;47.872;12.972;2023-09-07T03:24:52;12.70;99.90
21627;DHT22;10975;47.872;12.972;2023-09-07T03:27:19;12.60;99.90
21627;DHT22;10975;47.872;12.972;2023-09-07T03:29:49;12.60;99.90
21627;DHT22;10975;47.872;12.972;2023-09-07T03:32:18;12.50;99.90
21627;DHT22;10975;47.872;12.972;2023-09-07T03:34:45;12.50;99.90
21627;DHT22;10975;47.872;12.972;2023-09-07T03:37:11;12.50;99.90
21627;DHT22;10975;47.872;12.972;2023-09-07T03:39:38;12.50;99.90
21627;DHT22;10975;47.872;12.972;2023-09-07T03:42:05;12.50;99.90
21627;DHT22;10975;47.872;12.972;2023-09-07T03:44:32;12.50;99.90
21627;DHT22;10975;47.872;12.972;2023-09-07T03:47:00;12.50;99.90
21627;DHT22;10975;47.872;12.972;2023-09-07T03:49:27;12.50;99.90
21627;DHT22;10975;47.872;12.972;2023-09-07T03:51:53;12.50;99.90
21627;DHT22;10975;47.872;12.972;2023-09-07T03:54:20;12.40;99.90
21627;DHT22;10975;47.872;12.972;2023-09-07T03:56:47;12.40;99.90
21627;DHT22;10975;47.872;12.972;2023-09-07T03:59:13;12.40;99.90
21627;DHT22;10975;47.872;12.972;2023-09-07T04:01:40;12.40;99.90
21627;DHT22;10975;47.872;12.972;2023-09-07T04:04:07;12.40;99.90
21627;DHT22;10975;47.872;12.972;2023-09-07T04:06:34;12.40;99.90
21627;DHT22;10975;47.872;12.972;2023-09-07T04:09:00;12.40;99.90
21627;DHT22;10975;47.872;12.972;2023-09-07T04:11:27;12.40;99.90
21627;DHT22;10975;47.872;12.972;2023-09-07T04:13:54;12.30;99.90
21627;DHT22;10975;47.872;12.972;2023-09-07T04:16:21;12.30;99.90
21627;DHT22;10975;47.872;12.972;2023-09-07T04:18:48;12.30;99.90
21627;DHT22;10975;47.872;12.972;2023-09-07T04:21:14;12.30;99.90
21627;DHT22;10975;47.872;12.972;2023-09-07T04:23:41;12.20;99.90
21627;DHT22;10975;47.872;12.972;2023-09-07T04:26:08;12.20;99.90
21627;DHT22;10975;47.872;12.972;2023-09-07T04:28:36;12.10;99.90
21627;DHT22;10975;47.872;12.972;2023-09-07T04:31:03;12.00;99.90
21627;DHT22;10975;47.872;12.972;2023-09-07T04:33:30;11.90;99.90
21627;DHT22;10975;47.872;12.972;2023-09-07T04:36:06;11.80;99.90
21627;DHT22;10975;47.872;12.972;2023-09-07T04:38:32;11.70;99.90
21627;DHT22;10975;47.872;12.972;2023-09-07T04:41:11;11.70;99.90
21627;DHT22;10975;47.872;12.972;2023-09-07T04:43:39;11.70;99.90
21627;DHT22;10975;47.872;12.972;2023-09-07T04:46:12;11.70;99.90
21627;DHT22;10975;47.872;12.972;2023-09-07T04:48:40;11.70;99.90
21627;DHT22;10975;47.872;12.972;2023-09-07T04:51:10;11.70;99.90
21627;DHT22;10975;47.872;12.972;2023-09-07T04:53:39;11.80;99.90
21627;DHT22;10975;47.872;12.972;2023-09-07T04:56:06;11.80;99.90
21627;DHT22;10975;47.872;12.972;2023-09-07T04:58:34;11.90;99.90
21627;DHT22;10975;47.872;12.972;2023-09-07T05:01:05;11.90;99.90
21627;DHT22;10975;47.872;12.972;2023-09-07T05:03:32;11.90;99.90
21627;DHT22;10975;47.872;12.972;2023-09-07T05:06:00;11.90;99.90
21627;DHT22;10975;47.872;12.972;2023-09-07T06:24:54;13.10;99.90
21627;DHT22;10975;47.872;12.972;2023-09-07T06:27:27;13.20;99.90
21627;DHT22;10975;47.872;12.972;2023-09-07T06:30:02;13.30;99.90
21627;DHT22;10975;47.872;12.972;2023-09-07T06:32:43;13.40;99.90
21627;DHT22;10975;47.872;12.972;2023-09-07T06:35:13;13.40;99.90
21627;DHT22;10975;47.872;12.972;2023-09-07T06:37:51;13.50;99.90
21627;DHT22;10975;47.872;12.972;2023-09-07T06:40:32;13.60;99.90
21627;DHT22;10975;47.872;12.972;2023-09-07T06:46:25;13.80;99.90
21627;DHT22;10975;47.872;12.972;2023-09-07T06:48:52;13.80;99.90
21627;DHT22;10975;47.872;12.972;2023-09-07T06:51:19;13.90;99.90
21627;DHT22;10975;47.872;12.972;2023-09-07T06:53:45;14.00;99.90
21627;DHT22;10975;47.872;12.972;2023-09-07T06:56:23;14.10;99.90
21627;DHT22;10975;47.872;12.972;2023-09-07T06:58:50;14.20;99.90
21627;DHT22;10975;47.872;12.972;2023-09-07T07:01:25;14.20;99.90
21627;DHT22;10975;47.872;12.972;2023-09-07T07:04:01;14.30;99.90
21627;DHT22;10975;47.872;12.972;2023-09-07T07:06:54;14.40;99.90
21627;DHT22;10975;47.872;12.972;2023-09-07T07:09:26;14.50;99.90
21627;DHT22;10975;47.872;12.972;2023-09-07T07:11:56;14.60;99.90
21627;DHT22;10975;47.872;12.972;2023-09-07T07:14:23;14.70;99.90
21627;DHT22;10975;47.872;12.972;2023-09-07T07:16:50;14.80;99.90
21627;DHT22;10975;47.872;12.972;2023-09-07T07:19:17;14.80;99.90
21627;DHT22;10975;47.872;12.972;2023-09-07T07:21:43;14.90;99.90
21627;DHT22;10975;47.872;12.972;2023-09-07T07:24:11;15.10;99.90
21627;DHT22;10975;47.872;12.972;2023-09-07T07:26:41;15.20;99.90
21627;DHT22;10975;47.872;12.972;2023-09-07T07:29:07;15.30;99.90
21627;DHT22;10975;47.872;12.972;2023-09-07T07:31:34;15.30;99.90
21627;DHT22;10975;47.872;12.972;2023-09-07T07:34:01;15.50;99.90
21627;DHT22;10975;47.872;12.972;2023-09-07T07:36:28;15.60;99.90
21627;DHT22;10975;47.872;12.972;2023-09-07T07:38:57;15.60;99.90
21627;DHT22;10975;47.872;12.972;2023-09-07T07:41:23;15.70;99.90
21627;DHT22;10975;47.872;12.972;2023-09-07T07:43:52;15.70;99.90
21627;DHT22;10975;47.872;12.972;2023-09-07T07:46:19;15.80;99.90
21627;DHT22;10975;47.872;12.972;2023-09-07T07:48:46;15.90;99.90
21627;DHT22;10975;47.872;12.972;2023-09-07T07:51:13;16.00;99.90
21627;DHT22;10975;47.872;12.972;2023-09-07T07:53:40;16.10;99.90
21627;DHT22;10975;47.872;12.972;2023-09-07T07:56:14;16.20;99.90
21627;DHT22;10975;47.872;12.972;2023-09-07T07:58:41;16.30;99.90
21627;DHT22;10975;47.872;12.972;2023-09-07T08:01:14;16.30;99.90
21627;DHT22;10975;47.872;12.972;2023-09-07T08:03:42;16.40;99.90
21627;DHT22;10975;47.872;12.972;2023-09-07T08:06:09;16.50;99.90
21627;DHT22;10975;47.872;12.972;2023-09-07T08:08:39;16.60;99.90
21627;DHT22;10975;47.872;12.972;2023-09-07T08:11:06;16.70;99.90
21627;DHT22;10975;47.872;12.972;2023-09-07T08:13:33;16.80;99.90
21627;DHT22;10975;47.872;12.972;2023-09-07T08:16:01;16.90;99.90
21627;DHT22;10975;47.872;12.972;2023-09-07T08:18:28;17.00;99.90
21627;DHT22;10975;47.872;12.972;2023-09-07T08:20:55;17.00;99.90
21627;DHT22;10975;47.872;12.972;2023-09-07T08:23:22;17.20;99.90
21627;DHT22;10975;47.872;12.972;2023-09-07T08:25:51;17.20;99.90
21627;DHT22;10975;47.872;12.972;2023-09-07T08:28:18;17.30;99.90
21627;DHT22;10975;47.872;12.972;2023-09-07T08:30:49;17.40;99.90
21627;DHT22;10975;47.872;12.972;2023-09-07T08:33:17;17.50;99.90
21627;DHT22;10975;47.872;12.972;2023-09-07T08:35:44;17.50;99.90
21627;DHT22;10975;47.872;12.972;2023-09-07T08:38:14;17.50;99.90
21627;DHT22;10975;47.872;12.972;2023-09-07T08:41:01;17.60;99.90
21627;DHT22;10975;47.872;12.972;2023-09-07T08:43:35;17.70;99.90
21627;DHT22;10975;47.872;12.972;2023-09-07T08:46:14;17.70;99.90
21627;DHT22;10975;47.872;12.972;2023-09-07T08:58:23;18.10;99.90
21627;DHT22;10975;47.872;12.972;2023-09-07T09:00:50;18.20;99.90
21627;DHT22;10975;47.872;12.972;2023-09-07T09:03:18;18.30;99.90
21627;DHT22;10975;47.872;12.972;2023-09-07T09:05:45;18.40;99.90
21627;DHT22;10975;47.872;12.972;2023-09-07T09:08:13;18.50;99.90
21627;DHT22;10975;47.872;12.972;2023-09-07T09:10:39;18.60;99.90
21627;DHT22;10975;47.872;12.972;2023-09-07T09:13:07;18.70;99.90
21627;DHT22;10975;47.872;12.972;2023-09-07T09:15:33;18.70;99.90
21627;DHT22;10975;47.872;12.972;2023-09-07T09:18:08;18.80;99.90
21627;DHT22;10975;47.872;12.972;2023-09-07T09:20:37;18.90;99.90
21627;DHT22;10975;47.872;12.972;2023-09-07T09:23:04;18.90;99.90
21627;DHT22;10975;47.872;12.972;2023-09-07T09:25:34;19.10;99.90
21627;DHT22;10975;47.872;12.972;2023-09-07T09:28:00;19.10;99.90
21627;DHT22;10975;47.872;12.972;2023-09-07T09:30:27;19.20;99.90
21627;DHT22;10975;47.872;12.972;2023-09-07T09:32:57;19.20;99.90
21627;DHT22;10975;47.872;12.972;2023-09-07T09:35:25;19.20;99.90
21627;DHT22;10975;47.872;12.972;2023-09-07T09:37:52;19.30;99.90
21627;DHT22;10975;47.872;12.972;2023-09-07T09:40:19;19.40;99.90
21627;DHT22;10975;47.872;12.972;2023-09-07T09:42:46;19.50;99.90
21627;DHT22;10975;47.872;12.972;2023-09-07T09:45:13;19.60;99.90
21627;DHT22;10975;47.872;12.972;2023-09-07T09:47:40;19.60;99.90
21627;DHT22;10975;47.872;12.972;2023-09-07T09:50:08;19.70;99.90
21627;DHT22;10975;47.872;12.972;2023-09-07T09:52:36;19.80;99.90
21627;DHT22;10975;47.872;12.972;2023-09-07T09:55:03;19.80;99.90
21627;DHT22;10975;47.872;12.972;2023-09-07T09:57:32;19.90;99.90
21627;DHT22;10975;47.872;12.972;2023-09-07T09:59:59;20.00;99.90
21627;DHT22;10975;47.872;12.972;2023-09-07T10:02:26;20.00;99.90
21627;DHT22;10975;47.872;12.972;2023-09-07T10:04:53;20.20;99.90
21627;DHT22;10975;47.872;12.972;2023-09-07T10:07:28;20.20;99.90
21627;DHT22;10975;47.872;12.972;2023-09-07T10:09:55;20.20;99.90
21627;DHT22;10975;47.872;12.972;2023-09-07T10:12:26;20.30;99.90
21627;DHT22;10975;47.872;12.972;2023-09-07T10:14:53;20.40;99.90
21627;DHT22;10975;47.872;12.972;2023-09-07T10:17:22;20.50;99.90
21627;DHT22;10975;47.872;12.972;2023-09-07T10:19:49;20.60;99.90
21627;DHT22;10975;47.872;12.972;2023-09-07T10:22:21;20.50;99.90
21627;DHT22;10975;47.872;12.972;2023-09-07T10:24:56;20.70;99.90
21627;DHT22;10975;47.872;12.972;2023-09-07T10:27:23;20.70;99.90
21627;DHT22;10975;47.872;12.972;2023-09-07T10:29:50;20.80;99.90
21627;DHT22;10975;47.872;12.972;2023-09-07T10:32:22;20.80;99.90
21627;DHT22;10975;47.872;12.972;2023-09-07T10:34:49;20.90;99.90
21627;DHT22;10975;47.872;12.972;2023-09-07T10:37:16;21.10;99.90
21627;DHT22;10975;47.872;12.972;2023-09-07T10:39:44;21.10;99.90
21627;DHT22;10975;47.872;12.972;2023-09-07T10:42:23;21.10;99.90
21627;DHT22;10975;47.872;12.972;2023-09-07T10:44:51;21.10;99.90
21627;DHT22;10975;47.872;12.972;2023-09-07T10:47:18;21.20;99.90
21627;DHT22;10975;47.872;12.972;2023-09-07T10:49:44;21.20;99.90
21627;DHT22;10975;47.872;12.972;2023-09-07T10:52:11;21.30;99.90
21627;DHT22;10975;47.872;12.972;2023-09-07T10:54:39;21.30;99.90
21627;DHT22;10975;47.872;12.972;2023-09-07T10:57:09;21.40;99.90
21627;DHT22;10975;47.872;12.972;2023-09-07T10:59:36;21.40;99.90
21627;DHT22;10975;47.872;12.972;2023-09-07T11:02:04;21.50;99.90
21627;DHT22;10975;47.872;12.972;2023-09-07T11:04:31;21.60;99.90
21627;DHT22;10975;47.872;12.972;2023-09-07T11:06:58;21.60;99.90
21627;DHT22;10975;47.872;12.972;2023-09-07T11:09:25;21.70;99.90
21627;DHT22;10975;47.872;12.972;2023-09-07T11:11:51;21.90;99.90
21627;DHT22;10975;47.872;12.972;2023-09-07T11:14:20;21.90;99.90
21627;DHT22;10975;47.872;12.972;2023-09-07T11:16:47;22.00;99.90
21627;DHT22;10975;47.872;12.972;2023-09-07T11:19:14;22.00;99.90
21627;DHT22;10975;47.872;12.972;2023-09-07T11:21:45;22.10;99.90
21627;DHT22;10975;47.872;12.972;2023-09-07T11:24:12;22.10;99.90
21627;DHT22;10975;47.872;12.972;2023-09-07T11:26:43;22.20;99.90
21627;DHT22;10975;47.872;12.972;2023-09-07T11:29:09;22.20;99.90
21627;DHT22;10975;47.872;12.972;2023-09-07T11:31:39;22.20;99.90
21627;DHT22;10975;47.872;12.972;2023-09-07T11:34:10;22.20;99.90
21627;DHT22;10975;47.872;12.972;2023-09-07T11:36:37;22.30;99.90
21627;DHT22;10975;47.872;12.972;2023-09-07T11:39:04;22.30;99.90
21627;DHT22;10975;47.872;12.972;2023-09-07T11:41:42;22.30;99.90
21627;DHT22;10975;47.872;12.972;2023-09-07T11:44:11;22.40;99.90
21627;DHT22;10975;47.872;12.972;2023-09-07T11:46:39;22.50;99.90
21627;DHT22;10975;47.872;12.972;2023-09-07T11:49:06;22.50;99.90
21627;DHT22;10975;47.872;12.972;2023-09-07T11:51:36;22.60;99.90
21627;DHT22;10975;47.872;12.972;2023-09-07T11:54:03;22.70;99.90
21627;DHT22;10975;47.872;12.972;2023-09-07T11:56:31;22.70;99.90
21627;DHT22;10975;47.872;12.972;2023-09-07T11:58:57;22.70;99.90
21627;DHT22;10975;47.872;12.972;2023-09-07T12:01:24;22.70;99.90
21627;DHT22;10975;47.872;12.972;2023-09-07T12:03:53;22.80;99.90
21627;DHT22;10975;47.872;12.972;2023-09-07T12:06:19;22.80;99.90
21627;DHT22;10975;47.872;12.972;2023-09-07T12:08:59;22.90;99.90
21627;DHT22;10975;47.872;12.972;2023-09-07T12:11:26;22.90;99.90
21627;DHT22;10975;47.872;12.972;2023-09-07T12:13:53;22.90;99.90
21627;DHT22;10975;47.872;12.972;2023-09-07T12:16:20;22.90;99.90
21627;DHT22;10975;47.872;12.972;2023-09-07T12:18:47;22.90;99.90
21627;DHT22;10975;47.872;12.972;2023-09-07T12:21:14;22.90;99.90
21627;DHT22;10975;47.872;12.972;2023-09-07T12:23:41;22.90;99.90
21627;DHT22;10975;47.872;12.972;2023-09-07T12:26:07;22.90;99.90
21627;DHT22;10975;47.872;12.972;2023-09-07T12:28:35;23.00;99.90
21627;DHT22;10975;47.872;12.972;2023-09-07T12:31:04;23.00;99.90
21627;DHT22;10975;47.872;12.972;2023-09-07T12:33:31;23.00;99.90
21627;DHT22;10975;47.872;12.972;2023-09-07T12:36:00;23.20;99.90
21627;DHT22;10975;47.872;12.972;2023-09-07T12:38:27;23.20;99.90
21627;DHT22;10975;47.872;12.972;2023-09-07T12:40:55;23.10;99.90
21627;DHT22;10975;47.872;12.972;2023-09-07T12:43:23;23.20;99.90
21627;DHT22;10975;47.872;12.972;2023-09-07T12:45:51;23.20;99.90
21627;DHT22;10975;47.872;12.972;2023-09-07T12:48:27;23.20;99.90
21627;DHT22;10975;47.872;12.972;2023-09-07T12:50:54;23.20;99.90
21627;DHT22;10975;47.872;12.972;2023-09-07T12:53:22;23.30;99.90
21627;DHT22;10975;47.872;12.972;2023-09-07T12:55:54;23.30;99.90
21627;DHT22;10975;47.872;12.972;2023-09-07T12:58:21;23.30;99.90
21627;DHT22;10975;47.872;12.972;2023-09-07T13:00:48;23.40;99.90
21627;DHT22;10975;47.872;12.972;2023-09-07T13:03:15;23.40;99.90
21627;DHT22;10975;47.872;12.972;2023-09-07T13:05:42;23.40;99.90
21627;DHT22;10975;47.872;12.972;2023-09-07T13:08:08;23.40;99.90
21627;DHT22;10975;47.872;12.972;2023-09-07T13:10:36;23.40;99.90
21627;DHT22;10975;47.872;12.972;2023-09-07T13:13:03;23.50;99.90
21627;DHT22;10975;47.872;12.972;2023-09-07T13:15:29;23.50;99.90
21627;DHT22;10975;47.872;12.972;2023-09-07T13:17:56;23.50;99.90
21627;DHT22;10975;47.872;12.972;2023-09-07T13:20:23;23.50;99.90
21627;DHT22;10975;47.872;12.972;2023-09-07T13:22:50;23.60;99.90
21627;DHT22;10975;47.872;12.972;2023-09-07T13:25:17;23.60;99.90
21627;DHT22;10975;47.872;12.972;2023-09-07T13:27:43;23.60;99.90
21627;DHT22;10975;47.872;12.972;2023-09-07T13:30:10;23.60;99.90
21627;DHT22;10975;47.872;12.972;2023-09-07T13:32:40;23.70;99.90
21627;DHT22;10975;47.872;12.972;2023-09-07T13:35:07;23.70;99.90
21627;DHT22;10975;47.872;12.972;2023-09-07T13:37:34;23.70;99.90
21627;DHT22;10975;47.872;12.972;2023-09-07T13:40:03;23.70;99.90
21627;DHT22;10975;47.872;12.972;2023-09-07T13:42:30;23.70;99.90
21627;DHT22;10975;47.872;12.972;2023-09-07T13:44:57;23.70;99.90
21627;DHT22;10975;47.872;12.972;2023-09-07T13:47:23;23.80;99.90
21627;DHT22;10975;47.872;12.972;2023-09-07T13:49:50;23.80;99.90
21627;DHT22;10975;47.872;12.972;2023-09-07T13:52:17;23.80;99.90
21627;DHT22;10975;47.872;12.972;2023-09-07T13:54:44;23.90;99.90
21627;DHT22;10975;47.872;12.972;2023-09-07T13:57:10;23.90;99.90
21627;DHT22;10975;47.872;12.972;2023-09-07T13:59:37;23.90;99.90
21627;DHT22;10975;47.872;12.972;2023-09-07T14:02:04;23.90;99.90
21627;DHT22;10975;47.872;12.972;2023-09-07T14:04:31;24.00;99.90
21627;DHT22;10975;47.872;12.972;2023-09-07T14:06:57;24.00;99.90
21627;DHT22;10975;47.872;12.972;2023-09-07T14:09:24;24.10;99.90
21627;DHT22;10975;47.872;12.972;2023-09-07T14:11:51;24.10;99.90
21627;DHT22;10975;47.872;12.972;2023-09-07T14:14:18;24.10;99.90
21627;DHT22;10975;47.872;12.972;2023-09-07T14:16:44;24.20;99.90
21627;DHT22;10975;47.872;12.972;2023-09-07T14:19:11;24.10;99.90
21627;DHT22;10975;47.872;12.972;2023-09-07T14:21:38;24.20;99.90
21627;DHT22;10975;47.872;12.972;2023-09-07T14:24:05;24.20;99.90
21627;DHT22;10975;47.872;12.972;2023-09-07T14:26:32;24.20;99.90
21627;DHT22;10975;47.872;12.972;2023-09-07T14:28:58;24.30;99.90
21627;DHT22;10975;47.872;12.972;2023-09-07T14:31:25;24.20;99.90
21627;DHT22;10975;47.872;12.972;2023-09-07T14:33:52;24.20;99.90
21627;DHT22;10975;47.872;12.972;2023-09-07T14:36:18;24.30;99.90
21627;DHT22;10975;47.872;12.972;2023-09-07T14:38:45;24.20;99.90
21627;DHT22;10975;47.872;12.972;2023-09-07T14:41:12;24.20;99.90
21627;DHT22;10975;47.872;12.972;2023-09-07T14:43:46;24.20;99.90
21627;DHT22;10975;47.872;12.972;2023-09-07T14:46:13;24.20;99.90
21627;DHT22;10975;47.872;12.972;2023-09-07T14:48:40;24.20;99.90
21627;DHT22;10975;47.872;12.972;2023-09-07T14:51:07;24.30;99.90
21627;DHT22;10975;47.872;12.972;2023-09-07T14:53:34;24.30;99.90
21627;DHT22;10975;47.872;12.972;2023-09-07T14:56:01;24.30;99.90
21627;DHT22;10975;47.872;12.972;2023-09-07T14:58:28;24.30;99.90
21627;DHT22;10975;47.872;12.972;2023-09-07T15:00:55;24.30;99.90
21627;DHT22;10975;47.872;12.972;2023-09-07T15:03:22;24.20;99.90
21627;DHT22;10975;47.872;12.972;2023-09-07T15:05:49;24.30;99.90
21627;DHT22;10975;47.872;12.972;2023-09-07T15:08:16;24.30;99.90
21627;DHT22;10975;47.872;12.972;2023-09-07T15:10:42;24.30;99.90
21627;DHT22;10975;47.872;12.972;2023-09-07T15:13:09;24.30;99.90
21627;DHT22;10975;47.872;12.972;2023-09-07T15:15:36;24.30;99.90
21627;DHT22;10975;47.872;12.972;2023-09-07T15:18:09;24.30;99.90
21627;DHT22;10975;47.872;12.972;2023-09-07T15:20:36;24.30;99.90
21627;DHT22;10975;47.872;12.972;2023-09-07T15:23:06;24.30;99.90
21627;DHT22;10975;47.872;12.972;2023-09-07T15:25:33;24.30;99.90
21627;DHT22;10975;47.872;12.972;2023-09-07T15:28:00;24.30;99.90
21627;DHT22;10975;47.872;12.972;2023-09-07T15:30:27;24.30;99.90
21627;DHT22;10975;47.872;12.972;2023-09-07T15:32:54;24.30;99.90
21627;DHT22;10975;47.872;12.972;2023-09-07T15:35:21;24.30;99.90
21627;DHT22;10975;47.872;12.972;2023-09-07T15:37:48;24.30;99.90
21627;DHT22;10975;47.872;12.972;2023-09-07T15:40:15;24.30;99.90
21627;DHT22;10975;47.872;12.972;2023-09-07T15:42:41;24.20;99.90
21627;DHT22;10975;47.872;12.972;2023-09-07T15:45:09;24.20;99.90
21627;DHT22;10975;47.872;12.972;2023-09-07T15:47:35;24.10;99.90
21627;DHT22;10975;47.872;12.972;2023-09-07T15:50:02;24.10;99.90
21627;DHT22;10975;47.872;12.972;2023-09-07T15:52:29;24.10;99.90
21627;DHT22;10975;47.872;12.972;2023-09-07T15:54:56;24.00;99.90
21627;DHT22;10975;47.872;12.972;2023-09-07T15:57:24;23.90;99.90
21627;DHT22;10975;47.872;12.972;2023-09-07T15:59:51;23.90;99.90
21627;DHT22;10975;47.872;12.972;2023-09-07T16:02:18;24.00;99.90
21627;DHT22;10975;47.872;12.972;2023-09-07T16:04:45;23.90;99.90
21627;DHT22;10975;47.872;12.972;2023-09-07T16:07:12;23.90;99.90
21627;DHT22;10975;47.872;12.972;2023-09-07T16:09:39;23.80;99.90
21627;DHT22;10975;47.872;12.972;2023-09-07T16:12:06;23.80;99.90
21627;DHT22;10975;47.872;12.972;2023-09-07T16:14:33;23.80;99.90
21627;DHT22;10975;47.872;12.972;2023-09-07T16:17:00;23.80;99.90
21627;DHT22;10975;47.872;12.972;2023-09-07T16:19:26;23.80;99.90
21627;DHT22;10975;47.872;12.972;2023-09-07T16:21:53;23.70;99.90
21627;DHT22;10975;47.872;12.972;2023-09-07T16:24:20;23.60;99.90
21627;DHT22;10975;47.872;12.972;2023-09-07T16:26:47;23.60;99.90
21627;DHT22;10975;47.872;12.972;2023-09-07T16:29:13;23.50;99.90
21627;DHT22;10975;47.872;12.972;2023-09-07T16:31:40;23.50;99.90
21627;DHT22;10975;47.872;12.972;2023-09-07T16:34:07;23.50;99.90
21627;DHT22;10975;47.872;12.972;2023-09-07T16:36:34;23.60;99.90
21627;DHT22;10975;47.872;12.972;2023-09-07T16:39:00;23.90;99.90
21627;DHT22;10975;47.872;12.972;2023-09-07T16:41:27;24.50;99.90
21627;DHT22;10975;47.872;12.972;2023-09-07T16:43:54;24.40;99.90
21627;DHT22;10975;47.872;12.972;2023-09-07T16:46:21;24.00;99.90
21627;DHT22;10975;47.872;12.972;2023-09-07T16:48:47;23.70;99.90
21627;DHT22;10975;47.872;12.972;2023-09-07T16:51:15;23.50;99.90